Time;durP1;ratioP1;P1;durP2;ratioP2;P2;SDS_P1;SDS_P2;PMS_P1;PMS_P2;Temp;Humidity;BMP_temperature;BMP_pressure;BME280_temperature;BME280_humidity;BME280_pressure;Samples;Min_cycle;Max_cycle;Signal;HPM_P1;HPM_P2
2023/09/12 00:00:53;;;;;;;5.30;3.57;;;;;;;19.34;96.45;101200.41;5054378;28;20052;-83
2023/09/12 00:03:20;;;;;;;5.43;3.47;;;;;;;19.36;96.08;101205.63;5054684;28;20028;-83
2023/09/12 00:05:56;;;;;;;5.10;3.47;;;;;;;19.36;96.02;101219.63;5053937;28;20036;-84
2023/09/12 00:08:22;;;;;;;4.20;3.17;;;;;;;19.36;95.91;101219.63;5054288;28;20025;-84
2023/09/12 00:11:12;;;;;;;4.35;3.00;;;;;;;19.36;95.70;101221.41;5054883;28;20017;-84
2023/09/12 00:13:39;;;;;;;4.65;3.20;;;;;;;19.36;96.16;101226.69;5053639;28;20412;-84
2023/09/12 00:16:06;;;;;;;4.15;3.10;;;;;;;19.31;96.59;101212.88;5054485;28;20466;-85
2023/09/12 00:18:34;;;;;;;4.78;3.17;;;;;;;19.25;95.95;101211.38;5054513;28;20045;-84
2023/09/12 00:21:00;;;;;;;4.47;3.38;;;;;;;19.21;95.91;101213.28;5053785;28;20030;-84
2023/09/12 00:23:26;;;;;;;3.72;2.85;;;;;;;19.20;95.97;101214.22;5054040;28;20064;-84
2023/09/12 00:25:51;;;;;;;4.07;3.20;;;;;;;19.20;96.01;101224.75;5053797;28;20140;-83
2023/09/12 00:28:17;;;;;;;3.87;2.90;;;;;;;19.17;95.84;101218.78;5053653;28;20025;-84
2023/09/12 00:30:43;;;;;;;4.10;3.10;;;;;;;19.14;95.87;101225.00;5054251;28;20049;-84
2023/09/12 00:33:08;;;;;;;4.00;3.13;;;;;;;19.09;96.00;101206.81;5053573;28;20509;-84
2023/09/12 00:35:33;;;;;;;4.20;3.27;;;;;;;19.11;95.91;101222.53;5054179;28;20017;-84
2023/09/12 00:37:58;;;;;;;5.90;3.30;;;;;;;19.07;95.86;101215.69;5054351;28;20025;-84
2023/09/12 00:40:24;;;;;;;4.10;3.10;;;;;;;19.06;95.73;101222.75;5053093;28;20111;-84
2023/09/12 00:42:49;;;;;;;4.80;3.40;;;;;;;19.02;96.01;101218.53;5054309;28;20113;-84
2023/09/12 00:45:14;;;;;;;4.37;3.30;;;;;;;18.95;96.25;101217.13;5054000;28;20044;-84
2023/09/12 00:47:40;;;;;;;3.67;3.00;;;;;;;18.92;95.78;101220.69;5053348;28;20025;-84
2023/09/12 00:50:07;;;;;;;4.13;3.00;;;;;;;18.86;95.99;101210.44;5053729;28;20353;-83
2023/09/12 00:52:35;;;;;;;5.38;3.40;;;;;;;18.80;95.86;101211.56;5054118;28;20298;-83
2023/09/12 00:55:01;;;;;;;4.07;3.22;;;;;;;18.81;96.12;101207.16;5048991;28;20041;-85
2023/09/12 00:57:27;;;;;;;4.90;3.45;;;;;;;18.79;96.04;101209.84;5053302;28;20397;-84
2023/09/12 00:59:53;;;;;;;4.32;3.10;;;;;;;18.73;96.06;101198.75;5053810;28;20095;-84
2023/09/12 01:02:20;;;;;;;4.18;3.10;;;;;;;18.75;96.09;101208.28;5052731;28;20032;-84
2023/09/12 01:04:46;;;;;;;4.00;3.00;;;;;;;18.71;96.34;101195.34;5053201;28;20040;-83
2023/09/12 01:07:12;;;;;;;3.63;2.92;;;;;;;18.72;96.29;101204.94;5053502;28;20119;-83
2023/09/12 01:09:40;;;;;;;3.80;2.93;;;;;;;18.68;96.28;101199.84;5052412;28;20040;-84
2023/09/12 01:12:06;;;;;;;4.82;3.33;;;;;;;18.71;96.09;101203.22;5052858;28;20040;-83
2023/09/12 01:14:31;;;;;;;4.33;3.17;;;;;;;18.63;96.08;101188.66;5053459;28;20405;-83
2023/09/12 01:16:58;;;;;;;3.97;2.90;;;;;;;18.63;96.12;101196.53;5052658;28;20029;-84
2023/09/12 01:19:24;;;;;;;4.70;3.20;;;;;;;18.60;96.31;101191.41;5053020;28;20038;-84
2023/09/12 01:22:04;;;;;;;5.07;3.45;;;;;;;18.61;96.13;101201.00;5053243;28;20033;-83
2023/09/12 01:25:03;;;;;;;4.80;3.55;;;;;;;18.58;96.34;101193.25;5052156;28;20043;-83
2023/09/12 01:27:44;;;;;;;4.72;3.40;;;;;;;18.53;96.26;101190.81;5053221;28;20063;-84
2023/09/12 01:30:10;;;;;;;4.88;3.40;;;;;;;18.52;96.14;101193.53;5052420;28;20378;-83
2023/09/12 01:32:37;;;;;;;4.73;3.37;;;;;;;18.49;95.83;101193.66;5053250;28;20021;-83
2023/09/12 01:35:03;;;;;;;5.30;3.47;;;;;;;18.43;96.45;101192.13;5052708;28;20043;-83
2023/09/12 01:37:32;;;;;;;3.83;3.20;;;;;;;18.39;96.38;101184.44;5052293;28;20063;-83
2023/09/12 01:39:58;;;;;;;4.65;3.10;;;;;;;18.36;96.43;101178.41;5052727;28;20037;-83
2023/09/12 01:42:27;;;;;;;4.17;3.10;;;;;;;18.39;96.34;101194.97;5052717;28;20033;-83
2023/09/12 01:44:56;;;;;;;4.72;3.33;;;;;;;18.30;96.54;101183.94;5051640;28;20044;-83
2023/09/12 01:47:23;;;;;;;4.53;3.20;;;;;;;18.31;96.47;101187.41;5052800;28;20025;-83
2023/09/12 01:49:52;;;;;;;4.40;3.10;;;;;;;18.26;96.86;101192.00;5052493;28;20030;-83
2023/09/12 01:52:19;;;;;;;4.00;3.03;;;;;;;18.25;96.85;101190.28;5051603;28;20045;-83
2023/09/12 01:54:45;;;;;;;4.20;3.22;;;;;;;18.26;96.75;101197.25;5052768;28;20029;-83
2023/09/12 01:57:10;;;;;;;4.30;3.30;;;;;;;18.20;96.81;101180.81;5052507;28;20037;-83
2023/09/12 01:59:36;;;;;;;5.10;3.40;;;;;;;18.21;96.78;101184.31;5052070;28;20021;-83
2023/09/12 02:02:01;;;;;;;5.10;3.47;;;;;;;18.19;96.88;101191.41;5052890;28;20056;-83
2023/09/12 02:04:27;;;;;;;4.82;3.28;;;;;;;18.17;96.79;101193.25;5051522;28;20032;-83
2023/09/12 02:06:52;;;;;;;5.23;3.40;;;;;;;18.17;96.67;101202.00;5052713;28;20056;-83
2023/09/12 02:09:18;;;;;;;4.27;3.20;;;;;;;18.10;97.00;101190.00;5052161;28;20017;-83
2023/09/12 02:11:43;;;;;;;3.70;2.80;;;;;;;18.09;96.90;101183.03;5052039;28;20083;-83
2023/09/12 02:14:10;;;;;;;4.23;2.97;;;;;;;18.03;96.99;101183.31;5052442;28;20056;-82
2023/09/12 02:16:37;;;;;;;;;;;;;;;18.00;96.83;101181.69;5053039;28;20044;-83
2023/09/12 02:19:02;;;;;;;4.40;3.20;;;;;;;17.97;96.91;101187.03;5051252;28;19917;-83
2023/09/12 02:21:27;;;;;;;4.17;2.80;;;;;;;17.94;97.08;101184.50;5051380;28;20446;-84
2023/09/12 02:23:53;;;;;;;4.50;3.23;;;;;;;17.91;97.08;101182.00;5052282;28;20021;-83
2023/09/12 02:26:18;;;;;;;3.83;2.93;;;;;;;17.84;97.07;101180.53;5051814;28;20477;-83
2023/09/12 02:28:45;;;;;;;3.33;2.73;;;;;;;17.82;97.20;101190.25;5052727;28;20074;-83
2023/09/12 02:31:11;;;;;;;3.30;2.70;;;;;;;17.80;97.22;101192.06;5052122;28;20104;-83
2023/09/12 02:33:38;;;;;;;3.55;2.40;;;;;;;17.75;97.28;101201.00;5051685;28;20033;-83
2023/09/12 02:36:04;;;;;;;3.97;2.63;;;;;;;17.74;97.44;101201.91;5052236;28;20100;-83
2023/09/12 02:38:29;;;;;;;3.15;2.60;;;;;;;17.70;97.34;101195.06;5052336;28;20028;-83
2023/09/12 02:40:55;;;;;;;3.03;2.70;;;;;;;17.69;97.58;101198.59;5051485;28;20084;-83
2023/09/12 02:43:21;;;;;;;3.58;2.88;;;;;;;17.66;97.69;101193.50;5051930;28;20025;-83
2023/09/12 02:45:46;;;;;;;4.13;2.90;;;;;;;17.67;97.46;101194.34;5051993;28;20095;-83
2023/09/12 02:48:12;;;;;;;3.90;2.80;;;;;;;17.63;97.72;101192.75;5051052;28;20366;-83
2023/09/12 02:50:37;;;;;;;3.47;2.77;;;;;;;17.62;97.51;101191.06;5052138;28;20384;-83
2023/09/12 02:53:03;;;;;;;3.77;2.73;;;;;;;17.59;97.88;101192.00;5051808;28;20025;-83
2023/09/12 02:55:28;;;;;;;4.00;2.60;;;;;;;17.53;97.90;101182.63;5051562;28;20021;-83
2023/09/12 02:57:53;;;;;;;3.20;2.63;;;;;;;17.50;97.75;101174.88;5044387;28;20025;-84
2023/09/12 03:00:19;;;;;;;3.63;2.80;;;;;;;17.53;98.13;101185.25;5052139;28;20021;-83
2023/09/12 03:02:45;;;;;;;3.50;3.00;;;;;;;17.53;97.94;101189.66;5051371;28;20051;-83
2023/09/12 03:05:10;;;;;;;5.27;2.90;;;;;;;17.51;98.00;101187.06;5051815;28;20060;-83
2023/09/12 03:07:36;;;;;;;4.23;2.93;;;;;;;17.48;98.01;101187.22;5051884;28;20466;-83
2023/09/12 03:10:01;;;;;;;3.67;3.00;;;;;;;17.48;98.30;101186.34;5051856;28;20033;-83
2023/09/12 03:12:27;;;;;;;3.93;2.97;;;;;;;17.46;98.08;101191.66;5051942;28;20496;-83
2023/09/12 03:14:52;;;;;;;3.97;2.97;;;;;;;17.45;98.27;101193.41;5050536;28;20037;-83
2023/09/12 03:17:17;;;;;;;3.93;2.80;;;;;;;17.42;98.23;101188.28;5051592;28;20055;-83
2023/09/12 03:19:43;;;;;;;4.10;2.97;;;;;;;17.42;98.33;101192.66;5051936;28;20094;-83
2023/09/12 03:22:08;;;;;;;4.23;3.13;;;;;;;17.42;98.44;101201.41;5050793;28;20115;-83
2023/09/12 03:24:33;;;;;;;4.77;3.40;;;;;;;17.40;98.24;101184.88;5052013;28;20060;-83
2023/09/12 03:26:58;;;;;;;4.57;3.17;;;;;;;17.38;98.44;101172.75;5051992;28;20497;-83
2023/09/12 03:29:24;;;;;;;5.23;3.37;;;;;;;17.37;98.53;101179.72;5050751;28;20040;-83
2023/09/12 03:31:49;;;;;;;3.97;2.93;;;;;;;17.40;98.55;101176.13;5052410;28;20033;-83
2023/09/12 03:34:14;;;;;;;4.60;3.20;;;;;;;17.38;98.63;101167.50;5055297;28;20044;-83
2023/09/12 03:36:40;;;;;;;5.10;3.17;;;;;;;17.39;98.78;101175.28;5054600;28;20465;-83
2023/09/12 03:39:08;;;;;;;6.17;3.50;;;;;;;17.37;98.63;101179.72;5055242;28;20039;-83
2023/09/12 03:41:36;;;;;;;5.82;3.38;;;;;;;17.34;98.27;101171.97;5054749;28;20041;-83
2023/09/12 03:44:02;;;;;;;5.10;3.40;;;;;;;17.30;98.71;101170.41;5054350;28;20025;-83
2023/09/12 03:46:36;;;;;;;4.50;3.30;;;;;;;17.28;98.64;101166.97;5054987;28;20025;-83
2023/09/12 03:49:02;;;;;;;6.72;3.70;;;;;;;17.25;98.67;101169.72;5055241;28;20119;-83
2023/09/12 03:51:27;;;;;;;5.33;3.60;;;;;;;17.28;98.83;101173.06;5054207;28;20117;-83
2023/09/12 03:53:52;;;;;;;5.03;3.40;;;;;;;17.26;98.66;101174.03;5055262;28;20041;-83
2023/09/12 03:56:19;;;;;;;5.57;3.70;;;;;;;17.27;98.57;101181.88;5054922;28;20032;-83
2023/09/12 03:58:45;;;;;;;4.00;3.38;;;;;;;17.25;98.64;101177.56;5054466;28;20048;-83
2023/09/12 04:01:10;;;;;;;4.47;3.20;;;;;;;17.25;98.69;101174.94;5054743;28;20052;-83
2023/09/12 04:03:36;;;;;;;4.53;3.27;;;;;;;17.20;98.72;101161.19;5054620;28;20029;-83
2023/09/12 04:06:01;;;;;;;4.10;2.93;;;;;;;17.23;98.83;101166.28;5054343;28;20029;-83
2023/09/12 04:08:26;;;;;;;3.50;2.70;;;;;;;17.20;98.87;101169.03;5053129;28;20392;-82
2023/09/12 04:10:51;;;;;;;3.63;2.73;;;;;;;17.15;98.96;101153.50;5054498;28;20021;-83
2023/09/12 04:13:17;;;;;;;4.30;2.87;;;;;;;17.19;99.08;101159.47;5053680;28;20037;-83
2023/09/12 04:15:42;;;;;;;2.83;2.53;;;;;;;17.21;99.19;101158.47;5054284;28;20414;-84
2023/09/12 04:18:07;;;;;;;3.20;2.63;;;;;;;17.18;99.25;101157.75;5053778;28;20070;-83
2023/09/12 04:20:33;;;;;;;4.10;2.80;;;;;;;17.21;99.11;101155.03;5054626;28;20046;-83
2023/09/12 04:23:02;;;;;;;3.53;2.67;;;;;;;17.22;99.44;101167.22;5054627;28;20040;-83
2023/09/12 04:25:27;;;;;;;3.63;2.85;;;;;;;17.22;99.32;101159.34;5053800;28;20060;-83
2023/09/12 04:27:53;;;;;;;3.10;2.50;;;;;;;17.19;99.42;101155.06;5053136;28;20065;-83
2023/09/12 04:30:18;;;;;;;2.83;2.53;;;;;;;17.19;99.62;101154.22;5054058;28;20024;-83
2023/09/12 04:32:43;;;;;;;3.47;2.80;;;;;;;17.19;99.77;101159.47;5053620;28;20448;-83
2023/09/12 04:35:08;;;;;;;5.63;3.00;;;;;;;17.23;99.59;101155.78;5054016;28;20043;-83
2023/09/12 04:37:34;;;;;;;3.90;2.67;;;;;;;17.24;99.69;101168.88;5054065;28;20040;-84
2023/09/12 04:40:00;;;;;;;3.35;2.65;;;;;;;17.23;99.73;101169.78;5052621;28;20049;-83
2023/09/12 04:42:25;;;;;;;3.77;2.80;;;;;;;17.23;99.70;101171.53;5053821;28;20029;-83
2023/09/12 04:44:50;;;;;;;4.37;3.07;;;;;;;17.24;99.80;101183.72;5052654;28;20032;-82
2023/09/12 04:47:16;;;;;;;4.07;2.90;;;;;;;17.22;99.75;101175.09;5052229;28;20500;-82
2023/09/12 04:49:43;;;;;;;2.80;2.40;;;;;;;17.23;99.83;101176.78;5053768;28;20434;-82
2023/09/12 04:52:08;;;;;;;3.28;2.50;;;;;;;17.22;99.93;101180.34;5053695;28;20049;-82
2023/09/12 04:54:33;;;;;;;2.87;2.37;;;;;;;17.23;100.00;101176.78;5053251;28;20060;-82
2023/09/12 04:56:58;;;;;;;3.37;2.73;;;;;;;17.23;100.00;101176.78;5053993;28;20055;-82
2023/09/12 04:59:24;;;;;;;3.60;2.63;;;;;;;17.24;100.00;101178.50;5053601;28;20087;-82
2023/09/12 05:01:50;;;;;;;4.07;2.70;;;;;;;17.23;100.00;101179.41;5053150;28;20021;-83
2023/09/12 05:04:15;;;;;;;4.10;2.72;;;;;;;17.26;100.00;101179.28;5052938;28;20035;-82
2023/09/12 05:06:41;;;;;;;4.63;2.90;;;;;;;17.27;100.00;101183.63;5053425;28;20108;-82
2023/09/12 05:09:08;;;;;;;3.72;2.80;;;;;;;17.21;100.00;101181.25;5052577;28;20096;-82
2023/09/12 05:11:34;;;;;;;3.85;3.00;;;;;;;17.22;100.00;101188.22;5053531;28;20469;-80
2023/09/12 05:14:00;;;;;;;4.03;3.00;;;;;;;17.20;100.00;101193.50;5053686;28;20045;-80
2023/09/12 05:16:25;;;;;;;2.80;2.50;;;;;;;17.18;100.00;101183.97;5052521;28;20021;-80
2023/09/12 05:18:51;;;;;;;3.47;2.60;;;;;;;17.07;100.00;101172.13;5053470;28;20108;-80
2023/09/12 05:21:16;;;;;;;3.63;2.72;;;;;;;17.14;100.00;101186.72;5052642;28;20021;-79
2023/09/12 05:23:42;;;;;;;5.37;3.27;;;;;;;17.13;100.00;101181.53;5053069;28;20132;-80
2023/09/12 05:26:07;;;;;;;5.93;3.33;;;;;;;17.14;100.00;101189.34;5053044;28;20033;-80
2023/09/12 05:28:34;;;;;;;4.33;2.87;;;;;;;17.13;100.00;101186.78;5052853;28;20074;-85
2023/09/12 05:30:59;;;;;;;4.90;3.10;;;;;;;17.13;100.00;101185.00;5053179;28;20021;-84
2023/09/12 05:33:24;;;;;;;3.80;2.67;;;;;;;17.11;100.00;101172.88;5044618;28;20534;-84
2023/09/12 05:35:50;;;;;;;3.13;2.47;;;;;;;17.13;100.00;101171.03;5052220;28;20051;-85
2023/09/12 05:38:15;;;;;;;3.63;2.80;;;;;;;17.11;100.00;101157.13;5052548;28;20027;-85
2023/09/12 05:40:40;;;;;;;2.70;2.30;;;;;;;17.11;100.00;101157.97;5053169;28;20043;-85
2023/09/12 05:43:06;;;;;;;3.07;2.50;;;;;;;17.10;100.00;101153.66;5051856;28;20021;-84
2023/09/12 05:45:32;;;;;;;3.50;2.60;;;;;;;17.17;100.00;101163.91;5053049;28;20368;-85
2023/09/12 05:47:58;;;;;;;3.90;2.70;;;;;;;17.18;100.00;101157.75;5052941;28;20025;-85
2023/09/12 05:50:23;;;;;;;2.80;2.50;;;;;;;17.19;100.00;101164.72;5051894;28;20179;-86
2023/09/12 05:52:49;;;;;;;3.70;2.50;;;;;;;17.23;100.00;101171.53;5053037;28;20279;-86
2023/09/12 05:55:14;;;;;;;3.67;2.60;;;;;;;17.26;100.00;101176.66;5052072;28;20440;-81
2023/09/12 05:57:39;;;;;;;3.40;2.60;;;;;;;17.29;100.00;101176.56;5052052;28;20017;-80
2023/09/12 06:00:05;;;;;;;3.07;2.60;;;;;;;17.25;100.00;101162.72;5052087;28;20036;-80
2023/09/12 06:02:32;;;;;;;2.93;2.30;;;;;;;17.35;100.00;101173.69;5052041;28;20040;-80
2023/09/12 06:04:58;;;;;;;3.17;2.60;;;;;;;17.36;100.00;101177.19;5052168;28;20291;-80
2023/09/12 06:07:23;;;;;;;2.83;2.33;;;;;;;17.38;100.00;101177.97;5052712;28;20031;-84
2023/09/12 06:09:48;;;;;;;3.70;2.60;;;;;;;17.40;100.00;101184.88;5052870;28;20052;-84
2023/09/12 06:12:14;;;;;;;3.10;2.40;;;;;;;17.40;100.00;101190.13;5051421;28;20033;-84
2023/09/12 06:14:39;;;;;;;3.43;2.53;;;;;;;17.37;100.00;101184.97;5052428;28;20067;-84
2023/09/12 06:17:04;;;;;;;3.53;2.57;;;;;;;17.45;100.00;101192.56;5052241;28;20033;-84
2023/09/12 06:19:30;;;;;;;2.87;2.47;;;;;;;17.44;100.00;101189.09;5051685;28;20381;-84
2023/09/12 06:21:55;;;;;;;3.50;2.50;;;;;;;17.48;100.00;101192.44;5052625;28;20017;-82
2023/09/12 06:24:21;;;;;;;3.80;2.67;;;;;;;17.48;100.00;101189.84;5052679;28;20387;-88
2023/09/12 06:26:46;;;;;;;3.30;2.60;;;;;;;17.52;100.00;101194.03;5052729;28;20362;-84
2023/09/12 06:29:13;;;;;;;3.53;2.70;;;;;;;17.53;100.00;101200.16;5051651;28;20036;-82
2023/09/12 06:31:41;;;;;;;3.42;2.50;;;;;;;17.55;100.00;101196.53;5051397;28;20033;-82
2023/09/12 06:34:06;;;;;;;2.83;2.40;;;;;;;17.55;100.00;101188.66;5052328;28;20032;-82
2023/09/12 06:36:32;;;;;;;2.83;2.47;;;;;;;17.55;100.00;101182.56;5052799;28;20035;-85
2023/09/12 06:38:58;;;;;;;3.33;2.60;;;;;;;17.62;100.00;101194.53;5051894;28;20845;-85
2023/09/12 06:41:24;;;;;;;2.60;2.30;;;;;;;17.62;100.00;101201.56;5051842;28;20037;-86
2023/09/12 06:43:49;;;;;;;4.07;2.80;;;;;;;17.63;100.00;101206.75;5052164;28;20416;-87
2023/09/12 06:46:17;;;;;;;3.63;2.43;;;;;;;17.66;100.00;101205.75;5051311;28;20326;-85
2023/09/12 06:48:43;;;;;;;3.47;2.65;;;;;;;17.67;100.00;101208.34;5052591;28;20155;-90
2023/09/12 06:51:09;;;;;;;4.55;3.03;;;;;;;17.62;100.00;101198.94;5053098;28;20029;-90
2023/09/12 06:53:36;;;;;;;4.90;3.10;;;;;;;17.65;100.00;101207.53;5052832;28;20188;-90
2023/09/12 06:56:01;;;;;;;2.92;2.47;;;;;;;17.67;100.00;101210.97;5052911;28;20434;-90
2023/09/12 06:58:27;;;;;;;4.23;2.80;;;;;;;17.68;100.00;101210.03;5052004;28;20059;-90
2023/09/12 07:00:52;;;;;;;4.17;2.90;;;;;;;17.74;100.00;101209.78;5052549;28;20412;-90
2023/09/12 07:03:17;;;;;;;3.70;2.60;;;;;;;17.80;100.00;101218.31;5052508;28;20057;-90
2023/09/12 07:05:43;;;;;;;4.60;2.80;;;;;;;17.81;100.00;101210.41;5052954;28;20037;-90
2023/09/12 07:08:09;;;;;;;4.33;3.10;;;;;;;17.86;100.00;101211.06;5054987;28;20466;-89
2023/09/12 07:10:35;;;;;;;3.53;2.33;;;;;;;17.86;100.00;101212.84;5056780;28;20481;-90
2023/09/12 07:13:01;;;;;;;2.83;2.50;;;;;;;17.85;100.00;101209.34;5056603;28;20275;-90
2023/09/12 07:15:27;;;;;;;3.40;2.50;;;;;;;17.87;100.00;101211.94;5055468;28;20025;-90
2023/09/12 07:17:52;;;;;;;3.50;2.50;;;;;;;17.90;100.00;101212.66;5056444;28;20279;-90
2023/09/12 07:20:17;;;;;;;3.10;2.50;;;;;;;17.98;100.00;101214.16;5055899;28;20037;-90
2023/09/12 07:22:43;;;;;;;4.50;2.80;;;;;;;18.06;100.00;101212.09;5054326;28;20020;-90
2023/09/12 07:25:11;;;;;;;4.00;2.58;;;;;;;18.16;100.00;101215.16;5056767;28;20393;-90
2023/09/12 07:27:36;;;;;;;5.82;3.42;;;;;;;18.15;100.00;101208.19;5056788;28;20028;-90
2023/09/12 07:30:03;;;;;;;4.93;3.10;;;;;;;18.16;100.00;101209.91;5056007;28;20021;-90
2023/09/12 07:32:28;;;;;;;4.90;3.28;;;;;;;18.26;100.00;101215.66;5056598;28;20067;-90
2023/09/12 07:34:54;;;;;;;5.83;3.50;;;;;;;18.33;100.00;101220.59;5055500;28;20384;-90
2023/09/12 07:37:19;;;;;;;4.60;3.30;;;;;;;18.37;100.00;101224.78;5056280;28;20036;-91
2023/09/12 07:39:45;;;;;;;4.00;2.83;;;;;;;18.46;100.00;101233.22;5056194;28;20054;-90
2023/09/12 07:42:23;;;;;;;3.27;2.60;;;;;;;18.49;100.00;101226.06;5055309;28;20473;-90
2023/09/12 07:44:57;;;;;;;3.53;2.50;;;;;;;18.52;100.00;101211.91;5055835;28;20163;-90
2023/09/12 07:47:38;;;;;;;3.60;2.80;;;;;;;18.61;100.00;101219.41;5055995;28;20075;-90
2023/09/12 07:50:19;;;;;;;6.32;3.72;;;;;;;18.63;100.00;101206.22;5055007;28;20021;-90
2023/09/12 07:52:51;;;;;;;15.57;7.72;;;;;;;18.71;100.00;101216.38;5055851;28;20070;-90
2023/09/12 07:55:33;;;;;;;17.30;9.05;;;;;;;18.77;100.00;101229.25;5055379;28;20025;-89
2023/09/12 07:58:21;;;;;;;13.35;6.45;;;;;;;18.79;100.00;101204.59;5055230;28;20021;-90
2023/09/12 08:00:47;;;;;;;9.23;5.10;;;;;;;19.04;100.00;101218.44;5055739;28;20017;-89
2023/09/12 08:03:12;;;;;;;7.38;4.05;;;;;;;19.19;100.00;101225.66;5055045;28;20516;-89
2023/09/12 08:05:56;;;;;;;13.20;7.20;;;;;;;19.26;100.00;101210.47;5055555;28;20459;-90
2023/09/12 08:08:22;;;;;;;18.98;10.02;;;;;;;19.23;100.00;101214.09;5055656;28;20032;-90
2023/09/12 08:10:47;;;;;;;21.73;12.53;;;;;;;19.17;100.00;101211.72;5054519;28;20029;-90
2023/09/12 08:13:12;;;;;;;21.17;11.63;;;;;;;19.27;100.00;101231.41;5055472;28;20465;-90
2023/09/12 08:15:37;;;;;;;17.63;8.67;;;;;;;19.35;100.00;101240.75;5064353;28;20124;-89
2023/09/12 08:18:04;;;;;;;13.10;6.50;;;;;;;19.48;100.00;101243.66;5060325;28;20032;-90
2023/09/12 08:20:29;;;;;;;7.88;4.55;;;;;;;19.66;100.00;101258.59;5054498;28;20405;-86
2023/09/12 08:22:54;;;;;;;5.90;3.67;;;;;;;19.77;100.00;101266.00;5054781;28;20060;-87
2023/09/12 08:25:20;;;;;;;4.67;3.17;;;;;;;19.89;100.00;101256.69;5053862;28;20063;-88
2023/09/12 08:27:45;;;;;;;4.13;3.00;;;;;;;19.97;100.00;101256.31;5054677;28;20033;-90
2023/09/12 08:30:13;;;;;;;3.63;2.80;;;;;;;20.09;100.00;101261.00;5055244;28;20017;-89
2023/09/12 08:32:43;;;;;;;3.28;2.63;;;;;;;20.20;100.00;101261.31;5054633;28;20017;-90
2023/09/12 08:35:15;;;;;;;2.90;2.60;;;;;;;20.29;100.00;101267.06;5055006;28;20485;-90
2023/09/12 08:37:43;;;;;;;3.17;2.50;;;;;;;20.30;100.00;101272.28;5026003;28;20437;-89
2023/09/12 08:40:10;;;;;;;3.42;2.70;;;;;;;20.36;100.00;101281.66;5058833;23;20155;-90
2023/09/12 08:42:43;;;;;;;4.38;2.90;;;;;;;20.39;100.00;101285.91;5035241;28;20123;-90
2023/09/12 08:45:16;;;;;;;4.45;3.17;;;;;;;20.35;100.00;101272.88;5034304;28;20413;-91
2023/09/12 08:47:43;;;;;;;4.78;3.30;;;;;;;20.39;100.00;101283.28;5035323;28;20366;-91
2023/09/12 08:50:18;;;;;;;4.88;3.17;;;;;;;20.48;100.00;101270.50;5034788;28;20022;-91
2023/09/12 08:52:45;;;;;;;4.00;2.80;;;;;;;20.61;100.00;101280.41;5035295;28;20029;-90
2023/09/12 08:55:11;;;;;;;3.95;2.83;;;;;;;20.78;100.00;101272.53;5034668;28;20041;-90
2023/09/12 08:57:42;;;;;;;3.17;2.60;;;;;;;20.92;100.00;101269.16;5034624;28;20041;-90
2023/09/12 09:00:18;;;;;;;2.83;2.33;;;;;;;21.05;100.00;101276.44;5034029;28;20027;-89
2023/09/12 09:02:43;;;;;;;8.05;4.10;;;;;;;21.09;100.00;101268.28;5035203;28;20426;-93
2023/09/12 09:05:11;;;;;;;4.65;3.30;;;;;;;21.17;100.00;101274.97;5035071;28;20027;-94
2023/09/12 09:07:39;;;;;;;3.33;2.58;;;;;;;21.28;100.00;101285.75;5035101;28;20104;-93
2023/09/12 09:10:07;;;;;;;6.30;3.70;;;;;;;21.31;100.00;101282.13;5034656;28;20022;-93
2023/09/12 09:12:33;;;;;;;5.57;3.47;;;;;;;21.28;99.29;101285.75;5035381;28;20025;-95
2023/09/12 09:14:59;;;;;;;;;;;;;;;21.27;99.58;101289.38;5034686;28;20121;-94
2023/09/12 09:17:26;;;;;;;3.08;2.50;;;;;;;21.28;99.53;101288.41;5034389;28;20357;-94
2023/09/12 09:19:51;;;;;;;4.97;3.20;;;;;;;21.38;97.41;101283.50;5037700;28;20045;-93
2023/09/12 09:22:17;;;;;;;12.87;6.27;;;;;;;21.38;95.03;101265.00;5036547;28;20104;-93
2023/09/12 09:24:42;;;;;;;9.70;5.17;;;;;;;21.53;95.29;101255.41;5035014;28;20116;-91
2023/09/12 09:27:07;;;;;;;12.97;5.90;;;;;;;21.64;94.15;101258.31;5034690;28;20473;-92
2023/09/12 09:29:46;;;;;;;6.00;3.93;;;;;;;21.74;96.36;101245.47;5034466;28;20033;-92
2023/09/12 09:32:17;;;;;;;4.50;3.22;;;;;;;21.88;96.39;101255.25;5034353;28;20029;-92
2023/09/12 09:34:43;;;;;;;5.10;3.50;;;;;;;21.97;93.09;101253.88;5033796;28;20072;-92
2023/09/12 09:37:09;;;;;;;13.13;6.83;;;;;;;21.99;93.83;101255.50;5033708;28;20112;-92
2023/09/12 09:39:35;;;;;;;7.18;4.53;;;;;;;22.05;95.10;101251.66;5034191;28;20036;-92
2023/09/12 09:42:00;;;;;;;5.22;3.35;;;;;;;22.21;95.46;101264.81;5033447;28;20045;-91
2023/09/12 09:44:26;;;;;;;3.77;2.67;;;;;;;22.36;95.01;101252.50;5033520;28;20083;-92
2023/09/12 09:47:02;;;;;;;4.55;3.15;;;;;;;22.46;94.51;101258.97;5033718;28;20049;-91
2023/09/12 09:49:30;;;;;;;3.53;2.80;;;;;;;22.63;94.14;101259.78;5033622;28;20021;-91
2023/09/12 09:51:57;;;;;;;4.50;2.75;;;;;;;22.74;94.42;101244.13;5034123;28;20079;-90
2023/09/12 09:54:25;;;;;;;11.30;5.47;;;;;;;22.86;92.26;101247.81;5033524;28;20367;-91
2023/09/12 09:56:54;;;;;;;7.88;4.18;;;;;;;22.99;92.31;101248.75;5033650;28;20018;-91
2023/09/12 09:59:24;;;;;;;5.53;3.42;;;;;;;23.13;93.52;101245.28;5033621;28;20545;-91
2023/09/12 10:01:53;;;;;;;3.70;2.70;;;;;;;23.33;93.34;101244.97;5033727;28;20108;-91
2023/09/12 10:04:18;;;;;;;2.95;2.45;;;;;;;23.44;92.34;101250.44;5032944;28;20033;-90
2023/09/12 10:06:46;;;;;;;5.73;3.20;;;;;;;23.55;91.14;101261.22;5033359;28;20025;-79
2023/09/12 10:09:13;;;;;;;3.33;2.60;;;;;;;23.66;91.82;101268.50;5032762;28;20097;-80
2023/09/12 10:11:42;;;;;;;3.20;2.60;;;;;;;23.77;90.36;101265.13;5031420;28;20029;-88
2023/09/12 10:14:08;;;;;;;4.40;2.80;;;;;;;23.87;90.00;101268.06;5033143;28;20041;-90
2023/09/12 10:16:34;;;;;;;12.57;5.78;;;;;;;23.94;82.92;101256.09;5033714;28;20021;-87
2023/09/12 10:19:13;;;;;;;8.27;4.85;;;;;;;23.97;88.13;101247.13;5032315;28;20029;-89
2023/09/12 10:21:46;;;;;;;11.48;5.93;;;;;;;24.04;79.16;101249.25;5033040;28;20036;-87
2023/09/12 10:24:12;;;;;;;16.42;7.60;;;;;;;23.96;84.04;101242.78;5032244;28;20022;-89
2023/09/12 10:26:42;;;;;;;11.43;5.50;;;;;;;23.94;86.12;101250.78;5033520;28;20072;-89
2023/09/12 10:29:08;;;;;;;7.47;4.38;;;;;;;23.95;87.15;101254.31;5032797;28;20386;-89
2023/09/12 10:31:34;;;;;;;6.05;3.80;;;;;;;24.05;87.05;101245.66;5032453;28;20041;-90
2023/09/12 10:34:00;;;;;;;8.70;4.57;;;;;;;24.12;82.98;101245.28;5033124;28;20018;-90
2023/09/12 10:36:26;;;;;;;;;;;;;;;24.06;85.92;101246.53;5033203;28;20505;-90
2023/09/12 10:38:52;;;;;;;7.97;4.50;;;;;;;24.06;84.55;101236.75;5032513;28;19913;-90
2023/09/12 10:41:19;;;;;;;5.68;3.40;;;;;;;24.13;84.67;101237.19;5032065;28;20052;-89
2023/09/12 10:43:50;;;;;;;10.43;4.82;;;;;;;24.23;80.15;101247.19;5036806;28;20474;-89
2023/09/12 10:46:16;;;;;;;6.40;3.80;;;;;;;24.31;84.47;101240.44;5035966;28;20030;-89
2023/09/12 10:48:41;;;;;;;5.05;3.20;;;;;;;24.44;82.71;101236.94;5036931;28;20028;-88
2023/09/12 10:51:09;;;;;;;4.27;3.07;;;;;;;24.62;82.92;101240.16;5036559;28;20021;-88
2023/09/12 10:53:45;;;;;;;3.00;2.40;;;;;;;24.79;81.77;101245.16;5016460;22;20061;-88
2023/09/12 10:56:19;;;;;;;3.13;2.40;;;;;;;24.85;83.06;101229.78;4996972;28;20494;-88
2023/09/12 10:59:12;;;;;;;3.22;2.63;;;;;;;25.06;80.91;101238.03;4997339;28;20106;-88
2023/09/12 11:01:49;;;;;;;11.63;6.05;;;;;;;24.92;72.31;101234.56;4997337;28;20030;-88
2023/09/12 11:04:23;;;;;;;6.72;4.10;;;;;;;24.98;79.06;101246.56;4996553;28;20026;-88
2023/09/12 11:06:49;;;;;;;5.03;3.45;;;;;;;25.15;80.48;101248.00;4995805;28;20047;-87
2023/09/12 11:09:14;;;;;;;;;;;;;;;25.41;80.77;101240.88;4996710;28;20026;-87
2023/09/12 11:11:47;;;;;;;4.60;3.20;;;;;;;25.56;80.13;101233.59;4997192;28;19913;-88
2023/09/12 11:14:13;;;;;;;3.63;2.80;;;;;;;25.67;80.03;101234.59;4995693;28;20638;-88
2023/09/12 11:16:39;;;;;;;;;;;;;;;25.70;73.39;101234.38;4997115;28;20029;-88
2023/09/12 11:19:16;;;;;;;4.65;3.20;;;;;;;25.68;76.38;101231.81;4996429;28;19918;-88
2023/09/12 11:21:44;;;;;;;3.88;3.00;;;;;;;25.75;77.62;101232.22;4995983;28;20030;-88